Time;durP1;ratioP1;P1;durP2;ratioP2;P2;SDS_P1;SDS_P2;PMS_P1;PMS_P2;Temp;Humidity;BMP_temperature;BMP_pressure;BME280_temperature;BME280_humidity;BME280_pressure;Samples;Min_cycle;Max_cycle;Signal;HPM_P1;HPM_P2
2021/12/10 00:01:10;;;;;;;4.03;1.60;;;5.20;53.70;;;;;;5026163;28;34348;-76
2021/12/10 00:03:42;;;;;;;2.90;1.33;;;5.20;53.90;;;;;;5008854;28;34286;-76
2021/12/10 00:06:14;;;;;;;8.45;1.65;;;5.20;53.80;;;;;;5009545;28;36737;-76
2021/12/10 00:08:44;;;;;;;4.28;1.70;;;5.20;54.50;;;;;;5009638;28;34165;-76
2021/12/10 00:11:16;;;;;;;1.80;1.30;;;5.20;53.70;;;;;;5025693;28;34098;-77
2021/12/10 00:13:45;;;;;;;7.22;1.52;;;5.20;53.80;;;;;;5025855;28;34333;-76
2021/12/10 00:16:12;;;;;;;4.65;1.48;;;5.20;53.80;;;;;;5025498;28;36283;-76
2021/12/10 00:18:42;;;;;;;5.88;1.58;;;5.20;53.90;;;;;;5024060;28;34115;-76
2021/12/10 00:21:08;;;;;;;7.18;1.88;;;5.20;54.00;;;;;;5025686;28;34136;-76
2021/12/10 00:23:35;;;;;;;5.05;1.73;;;5.20;53.90;;;;;;5027133;28;34117;-76
2021/12/10 00:26:05;;;;;;;2.47;1.55;;;5.20;53.80;;;;;;5025982;28;35159;-76
2021/12/10 00:28:35;;;;;;;4.68;1.85;;;5.20;53.80;;;;;;5025488;28;34215;-76
2021/12/10 00:33:59;;;;;;;6.25;1.83;;;5.10;53.90;;;;;;5026259;28;34120;-76
2021/12/10 00:36:25;;;;;;;4.07;1.80;;;5.10;53.80;;;;;;5026267;28;34208;-76
2021/12/10 00:38:52;;;;;;;3.67;1.80;;;5.10;53.80;;;;;;5026320;28;34169;-76
2021/12/10 00:41:19;;;;;;;2.53;1.55;;;5.10;53.90;;;;;;5024831;28;34172;-76
2021/12/10 00:43:46;;;;;;;7.57;2.00;;;5.10;53.90;;;;;;5009746;28;34113;-76
2021/12/10 00:46:13;;;;;;;3.33;1.60;;;5.10;53.90;;;;;;5009823;28;35517;-76
2021/12/10 00:48:39;;;;;;;5.22;1.48;;;5.10;53.80;;;;;;5025527;28;34137;-76
2021/12/10 00:51:08;;;;;;;2.67;1.63;;;5.10;53.90;;;;;;5027170;28;34243;-76
2021/12/10 00:53:34;;;;;;;6.35;1.77;;;5.10;53.80;;;;;;5026391;28;34075;-76
2021/12/10 00:56:01;;;;;;;3.40;1.75;;;5.10;53.90;;;;;;5009089;28;36683;-76
2021/12/10 00:58:29;;;;;;;2.88;1.55;;;5.20;53.80;;;;;;5025056;28;34336;-76
2021/12/10 01:00:59;;;;;;;9.35;2.13;;;5.10;53.80;;;;;;5025578;28;34338;-76
2021/12/10 01:03:39;;;;;;;7.07;1.67;;;5.10;53.70;;;;;;5010405;28;33904;-76
2021/12/10 01:06:08;;;;;;;7.15;1.73;;;5.10;53.70;;;;;;5011087;28;35735;-76
2021/12/10 01:08:37;;;;;;;5.10;1.65;;;5.10;53.80;;;;;;5009708;28;33677;-76
2021/12/10 01:11:10;;;;;;;5.45;1.73;;;5.10;53.70;;;;;;5026616;28;34311;-76
2021/12/10 01:13:39;;;;;;;7.13;1.80;;;5.00;53.10;;;;;;5011842;28;34399;-76
2021/12/10 01:23:41;;;;;;;10.18;1.90;;;5.10;53.40;;;;;;5013316;28;35827;-76
2021/12/10 01:27:28;;;;;;;5.13;1.60;;;5.00;53.30;;;;;;5028620;28;34245;-76
2021/12/10 01:29:57;;;;;;;7.00;1.73;;;5.00;53.20;;;;;;5027865;28;33707;-76
2021/12/10 01:32:28;;;;;;;3.70;1.35;;;5.00;53.40;;;;;;5012478;28;34165;-76
2021/12/10 01:34:55;;;;;;;8.40;2.05;;;5.00;53.10;;;;;;5014095;28;34165;-76
2021/12/10 01:37:21;;;;;;;3.72;1.48;;;5.00;53.30;;;;;;5030742;28;36117;-76
2021/12/10 01:39:47;;;;;;;2.33;1.15;;;5.00;53.20;;;;;;5029983;28;33701;-76
2021/12/10 01:42:31;;;;;;;4.55;1.35;;;5.00;53.30;;;;;;5029929;28;34577;-76
2021/12/10 01:44:59;;;;;;;3.00;1.52;;;5.00;53.10;;;;;;5029554;28;34250;-76
2021/12/10 01:47:32;;;;;;;4.40;1.55;;;5.00;53.10;;;;;;5012495;28;36750;-75
2021/12/10 01:49:59;;;;;;;5.35;1.52;;;5.00;53.10;;;;;;5013659;28;34387;-76
2021/12/10 01:52:27;;;;;;;4.97;1.40;;;5.00;53.10;;;;;;5012376;28;34259;-76
2021/12/10 01:55:00;;;;;;;5.78;1.80;;;5.00;53.00;;;;;;5028964;28;34320;-76
2021/12/10 01:57:30;;;;;;;4.95;1.33;;;5.00;53.00;;;;;;5011522;28;35777;-76
2021/12/10 01:59:56;;;;;;;6.13;1.88;;;5.00;53.00;;;;;;5028878;28;34103;-76
2021/12/10 02:02:28;;;;;;;3.65;1.83;;;5.00;53.10;;;;;;5027454;28;34366;-76
2021/12/10 02:04:54;;;;;;;5.95;1.50;;;5.00;53.20;;;;;;5029834;28;34268;-76
2021/12/10 02:07:25;;;;;;;6.25;1.65;;;5.00;53.00;;;;;;5028965;28;36397;-76
2021/12/10 02:09:52;;;;;;;6.07;1.60;;;5.00;53.10;;;;;;5013191;28;34425;-76
2021/12/10 02:12:19;;;;;;;3.83;1.45;;;4.90;53.10;;;;;;5013455;28;34231;-76
2021/12/10 02:14:56;;;;;;;8.35;1.98;;;4.90;53.20;;;;;;5030895;28;34403;-76
2021/12/10 02:17:23;;;;;;;8.07;1.80;;;4.80;53.00;;;;;;5018228;28;35646;-76
2021/12/10 02:19:49;;;;;;;2.78;1.73;;;4.70;53.10;;;;;;5052411;28;34493;-76
2021/12/10 02:22:15;;;;;;;4.65;1.25;;;4.70;53.20;;;;;;5069374;28;34347;-76
2021/12/10 02:24:41;;;;;;;3.20;1.80;;;4.70;53.30;;;;;;5051366;28;34204;-76
2021/12/10 02:27:08;;;;;;;5.68;1.80;;;4.60;53.10;;;;;;5051507;28;35443;-76
2021/12/10 02:29:37;;;;;;;8.30;1.90;;;4.60;53.30;;;;;;5034484;28;34976;-77
2021/12/10 02:32:08;;;;;;;8.50;1.95;;;4.50;53.30;;;;;;5034102;28;34232;-76
2021/12/10 02:34:35;;;;;;;5.57;1.90;;;4.50;53.30;;;;;;5034762;28;34165;-76
2021/12/10 02:37:01;;;;;;;4.60;1.65;;;4.50;53.30;;;;;;5049122;28;35500;-76
2021/12/10 02:39:28;;;;;;;4.55;1.95;;;4.40;53.40;;;;;;5034026;28;34420;-76
2021/12/10 02:41:54;;;;;;;2.83;1.60;;;4.40;53.40;;;;;;5052363;28;34475;-76
2021/12/10 02:44:25;;;;;;;6.07;2.00;;;4.30;53.60;;;;;;5050315;28;34110;-76
2021/12/10 02:46:51;;;;;;;3.45;1.80;;;4.30;53.60;;;;;;5034355;28;35681;-76
2021/12/10 02:49:18;;;;;;;6.30;2.00;;;4.30;53.50;;;;;;5049860;28;34179;-76
2021/12/10 02:51:44;;;;;;;4.28;1.50;;;4.20;53.40;;;;;;5068309;28;34121;-76
2021/12/10 02:54:14;;;;;;;3.08;1.80;;;4.20;53.40;;;;;;5052216;27;34176;-76
2021/12/10 02:56:41;;;;;;;2.30;1.67;;;4.20;53.50;;;;;;5052422;28;35836;-76
2021/12/10 02:59:08;;;;;;;4.60;1.80;;;4.20;53.50;;;;;;5034391;28;34036;-76
2021/12/10 03:01:39;;;;;;;6.35;1.90;;;4.20;53.40;;;;;;5051869;27;33818;-76
2021/12/10 03:04:07;;;;;;;6.05;1.88;;;4.20;53.50;;;;;;5051932;28;34472;-76
2021/12/10 03:06:37;;;;;;;4.60;1.85;;;4.10;53.50;;;;;;5051043;27;34113;-76
2021/12/10 03:09:04;;;;;;;4.65;1.63;;;4.10;53.50;;;;;;5049725;28;34255;-76
2021/12/10 03:11:35;;;;;;;5.03;1.55;;;4.10;53.50;;;;;;5049858;28;34326;-76
2021/12/10 03:14:06;;;;;;;3.95;1.42;;;4.10;53.30;;;;;;5033772;28;34374;-76
2021/12/10 03:16:33;;;;;;;6.82;1.83;;;4.10;53.40;;;;;;5033501;28;36035;-76
2021/12/10 03:18:59;;;;;;;3.55;1.95;;;4.10;53.40;;;;;;5032545;28;34218;-76
2021/12/10 03:21:25;;;;;;;3.25;1.80;;;4.10;53.40;;;;;;5026402;28;34210;-76
2021/12/10 03:23:51;;;;;;;1.80;1.42;;;4.10;53.40;;;;;;5025759;28;34110;-76
2021/12/10 03:26:21;;;;;;;5.03;1.90;;;4.10;53.30;;;;;;5026160;28;35534;-75
2021/12/10 03:28:49;;;;;;;4.00;1.70;;;4.10;53.20;;;;;;5027412;28;34118;-76
2021/12/10 03:31:17;;;;;;;5.60;1.65;;;4.20;53.30;;;;;;5027636;28;34051;-76
2021/12/10 03:33:44;;;;;;;2.88;1.48;;;4.20;53.10;;;;;;5043406;28;34164;-76
2021/12/10 03:36:11;;;;;;;2.75;1.60;;;4.20;53.20;;;;;;5026500;28;35710;-77
2021/12/10 03:38:39;;;;;;;3.88;1.45;;;4.20;53.00;;;;;;5028235;28;34159;-76
2021/12/10 03:41:07;;;;;;;1.90;1.27;;;4.20;53.10;;;;;;5027064;28;34172;-76
2021/12/10 03:43:34;;;;;;;2.30;1.63;;;4.20;52.80;;;;;;5010687;28;34235;-76
2021/12/10 03:46:02;;;;;;;4.45;2.33;;;4.30;53.70;;;;;;5027022;28;34355;-76
2021/12/10 03:48:33;;;;;;;2.75;1.40;;;4.30;52.90;;;;;;5025058;28;34486;-76
2021/12/10 03:51:02;;;;;;;3.28;1.77;;;4.30;52.90;;;;;;5024907;28;34320;-76
2021/12/10 03:53:28;;;;;;;4.63;1.58;;;4.30;53.00;;;;;;5010312;28;34150;-76
2021/12/10 03:56:01;;;;;;;1.92;1.50;;;4.40;52.90;;;;;;5009295;28;35734;-76
2021/12/10 03:58:27;;;;;;;2.88;1.60;;;4.30;52.80;;;;;;5026814;28;34302;-76
2021/12/10 04:00:55;;;;;;;5.30;1.85;;;4.30;52.80;;;;;;5027769;28;34495;-76
2021/12/10 04:03:25;;;;;;;3.70;2.00;;;4.30;52.90;;;;;;5026519;28;34387;-76
2021/12/10 04:05:52;;;;;;;2.92;1.80;;;4.40;52.70;;;;;;5042849;28;34219;-76
2021/12/10 04:08:19;;;;;;;4.47;1.92;;;4.30;52.70;;;;;;5027849;28;34071;-76
2021/12/10 04:10:46;;;;;;;3.65;2.13;;;4.30;52.70;;;;;;5026938;28;34229;-76
2021/12/10 04:13:13;;;;;;;4.85;1.70;;;4.30;52.70;;;;;;5027496;28;34107;-76
2021/12/10 04:15:40;;;;;;;2.75;1.63;;;4.30;52.70;;;;;;5026528;28;36599;-76
2021/12/10 04:18:08;;;;;;;2.25;1.63;;;4.30;52.80;;;;;;5025855;28;34304;-76
2021/12/10 04:20:35;;;;;;;2.85;1.80;;;4.40;52.70;;;;;;5026993;28;34217;-76
2021/12/10 04:23:05;;;;;;;5.55;1.88;;;4.30;52.60;;;;;;5011741;28;34435;-77
2021/12/10 04:25:31;;;;;;;5.20;2.05;;;4.40;52.60;;;;;;5027976;28;35556;-76
2021/12/10 04:28:01;;;;;;;3.85;2.00;;;4.30;52.50;;;;;;5025015;28;34271;-76
2021/12/10 04:30:35;;;;;;;3.22;1.50;;;4.30;52.40;;;;;;5025149;28;34109;-75
2021/12/10 04:33:03;;;;;;;6.47;1.63;;;4.30;52.60;;;;;;5040621;28;34374;-76
2021/12/10 04:35:29;;;;;;;3.50;1.88;;;4.30;52.60;;;;;;5025278;28;35754;-76
2021/12/10 04:37:55;;;;;;;3.42;1.30;;;4.30;52.60;;;;;;5025246;28;34359;-76
2021/12/10 04:40:22;;;;;;;3.50;1.42;;;4.30;52.70;;;;;;5008231;28;34311;-76
2021/12/10 04:42:50;;;;;;;3.83;1.50;;;4.30;52.50;;;;;;5023986;28;34243;-76
2021/12/10 04:45:18;;;;;;;6.05;1.60;;;4.30;52.50;;;;;;5009358;28;35538;-76
2021/12/10 04:47:45;;;;;;;2.53;1.30;;;4.30;52.60;;;;;;5025025;28;34263;-76
2021/12/10 04:50:12;;;;;;;3.65;1.20;;;4.30;52.50;;;;;;5008256;28;34272;-76
2021/12/10 04:52:38;;;;;;;4.03;1.63;;;4.20;52.30;;;;;;5025771;28;34181;-76
2021/12/10 04:55:08;;;;;;;5.18;1.70;;;4.20;52.20;;;;;;5025576;28;36624;-76
2021/12/10 04:57:34;;;;;;;3.35;1.70;;;4.20;52.30;;;;;;5028088;28;34033;-76
2021/12/10 05:00:01;;;;;;;4.47;1.52;;;4.20;52.20;;;;;;5027509;28;34086;-76
2021/12/10 05:02:27;;;;;;;4.15;1.42;;;4.30;52.60;;;;;;5041533;28;34499;-76
2021/12/10 05:04:57;;;;;;;6.35;1.38;;;4.30;52.60;;;;;;5008745;28;35801;-76
2021/12/10 05:07:24;;;;;;;2.95;1.30;;;4.30;52.50;;;;;;5024327;28;34075;-76
2021/12/10 05:09:50;;;;;;;1.58;1.20;;;4.30;52.40;;;;;;5025780;28;34187;-76
2021/12/10 05:12:17;;;;;;;3.30;1.20;;;4.20;52.20;;;;;;5026655;28;34322;-76
2021/12/10 05:14:43;;;;;;;1.85;1.10;;;4.30;52.20;;;;;;5027234;28;35826;-76
2021/12/10 05:17:09;;;;;;;5.78;1.45;;;4.30;52.40;;;;;;5026249;28;34156;-76
2021/12/10 05:19:38;;;;;;;5.28;1.48;;;4.30;52.30;;;;;;5048570;28;34276;-76
2021/12/10 05:22:07;;;;;;;4.88;1.38;;;4.30;52.30;;;;;;5033521;28;34392;-76
2021/12/10 05:24:34;;;;;;;4.28;1.25;;;4.30;52.40;;;;;;5033877;28;35544;-76
2021/12/10 05:27:01;;;;;;;2.10;1.48;;;4.30;52.30;;;;;;5049839;28;34000;-76
2021/12/10 05:29:28;;;;;;;3.92;1.38;;;4.30;52.30;;;;;;5048349;28;34101;-76
2021/12/10 05:31:56;;;;;;;3.55;1.35;;;4.30;52.40;;;;;;5031277;28;34063;-76
2021/12/10 05:34:22;;;;;;;2.03;1.00;;;4.30;52.30;;;;;;5063961;28;34348;-76
2021/12/10 05:36:48;;;;;;;3.90;1.40;;;4.30;51.90;;;;;;5047548;28;34223;-76
2021/12/10 05:39:17;;;;;;;2.50;1.05;;;4.30;52.30;;;;;;5067084;28;34023;-76
2021/12/10 05:41:43;;;;;;;5.97;1.30;;;4.30;52.40;;;;;;5067452;28;34052;-76
2021/12/10 05:44:09;;;;;;;2.22;1.20;;;4.30;52.60;;;;;;5048714;28;36460;-76
2021/12/10 05:46:37;;;;;;;1.27;1.02;;;4.30;52.60;;;;;;5048368;28;34194;-76
2021/12/10 05:49:04;;;;;;;5.38;1.30;;;4.30;52.60;;;;;;5048050;28;34223;-76
2021/12/10 05:51:30;;;;;;;2.70;1.23;;;4.30;52.60;;;;;;5065389;28;34323;-76
2021/12/10 05:53:56;;;;;;;3.13;1.10;;;4.20;52.40;;;;;;5048448;27;36209;-76
2021/12/10 05:56:22;;;;;;;2.42;1.40;;;4.20;52.60;;;;;;5047968;28;34310;-76
2021/12/10 05:58:48;;;;;;;3.03;0.95;;;4.20;52.60;;;;;;5047721;28;34178;-76
2021/12/10 06:01:16;;;;;;;1.38;0.90;;;4.20;52.60;;;;;;5068388;28;34156;-76
2021/12/10 06:03:51;;;;;;;3.92;1.08;;;4.20;52.70;;;;;;5034669;28;35668;-76
2021/12/10 06:06:18;;;;;;;2.03;1.02;;;4.20;52.60;;;;;;5052362;28;34240;-76
2021/12/10 06:08:44;;;;;;;1.70;1.00;;;4.20;52.70;;;;;;5052586;28;34321;-76
2021/12/10 06:11:10;;;;;;;1.50;1.20;;;4.20;52.60;;;;;;5034646;28;34117;-76
2021/12/10 06:13:36;;;;;;;7.03;1.23;;;4.10;52.70;;;;;;5051835;28;35021;-76
2021/12/10 06:16:03;;;;;;;3.97;1.10;;;4.10;52.50;;;;;;5069428;28;34192;-77
2021/12/10 06:18:30;;;;;;;3.95;1.20;;;4.10;52.80;;;;;;5068894;28;34020;-76
2021/12/10 06:20:56;;;;;;;1.60;1.10;;;4.10;52.80;;;;;;5051675;28;34189;-76
2021/12/10 06:23:22;;;;;;;2.80;1.40;;;4.10;52.80;;;;;;5050826;28;35708;-77
2021/12/10 06:25:49;;;;;;;1.50;0.90;;;4.10;52.90;;;;;;5034603;28;34285;-77
2021/12/10 06:28:17;;;;;;;5.00;1.40;;;4.00;52.90;;;;;;5049878;28;34043;-77
2021/12/10 06:30:45;;;;;;;1.55;0.93;;;4.00;52.90;;;;;;5075246;27;34246;-76
2021/12/10 06:33:21;;;;;;;3.38;0.60;;;4.00;52.90;;;;;;5155091;27;34928;-76
2021/12/10 06:35:51;;;;;;;5.75;1.23;;;4.00;53.00;;;;;;5138133;27;34176;-76
2021/12/10 06:38:18;;;;;;;9.05;1.55;;;3.90;53.10;;;;;;5154472;27;34532;-76
2021/12/10 06:40:45;;;;;;;3.28;1.25;;;3.90;53.10;;;;;;5154437;27;34075;-76
2021/12/10 06:43:13;;;;;;;1.63;0.80;;;3.90;53.00;;;;;;5154630;27;35202;-76
2021/12/10 06:45:40;;;;;;;5.95;1.20;;;3.90;53.20;;;;;;5155307;27;34105;-76
2021/12/10 06:48:08;;;;;;;2.65;1.00;;;3.80;53.80;;;;;;5054626;27;34308;-77
2021/12/10 06:50:41;;;;;;;4.05;1.40;;;3.80;53.00;;;;;;5053069;27;34468;-77
2021/12/10 06:53:07;;;;;;;6.07;1.40;;;3.80;53.30;;;;;;5032350;28;34758;-77
2021/12/10 06:55:33;;;;;;;4.05;1.08;;;3.80;53.40;;;;;;5080182;27;34272;-77
2021/12/10 06:58:00;;;;;;;2.78;1.40;;;3.80;53.20;;;;;;5081284;27;34169;-76
2021/12/10 07:00:31;;;;;;;7.00;1.30;;;3.70;53.20;;;;;;5015381;28;34548;-77
2021/12/10 07:02:58;;;;;;;2.95;1.20;;;3.70;53.40;;;;;;5030472;28;36060;-77
2021/12/10 07:05:24;;;;;;;3.20;1.48;;;3.70;53.40;;;;;;5045129;27;34274;-77
2021/12/10 07:07:51;;;;;;;3.45;1.38;;;3.60;53.50;;;;;;5044869;27;34249;-77
2021/12/10 07:10:18;;;;;;;1.15;1.00;;;3.60;53.50;;;;;;5046460;27;34304;-77
2021/12/10 07:12:45;;;;;;;2.45;1.20;;;3.70;53.60;;;;;;5028202;28;35623;-77
2021/12/10 07:15:15;;;;;;;3.55;1.40;;;3.60;53.60;;;;;;5028418;28;34415;-77
2021/12/10 07:17:46;;;;;;;5.22;1.48;;;3.60;53.60;;;;;;5028778;28;33869;-77
2021/12/10 07:20:14;;;;;;;2.03;1.35;;;3.60;53.50;;;;;;5029148;28;34175;-77
2021/12/10 07:22:41;;;;;;;2.20;1.13;;;3.60;53.60;;;;;;5044352;28;35755;-77
2021/12/10 07:25:08;;;;;;;4.82;1.58;;;3.60;53.60;;;;;;5077771;27;34458;-77
2021/12/10 07:27:35;;;;;;;3.33;1.10;;;3.60;53.70;;;;;;5044906;28;34360;-77
2021/12/10 07:30:02;;;;;;;2.58;1.35;;;3.60;53.70;;;;;;5044146;27;34412;-77
2021/12/10 07:32:28;;;;;;;5.78;1.88;;;3.60;53.70;;;;;;5044096;27;36330;-77
2021/12/10 07:34:54;;;;;;;3.25;1.55;;;3.60;53.80;;;;;;5063136;27;34239;-77
2021/12/10 07:37:21;;;;;;;5.68;1.40;;;3.60;53.80;;;;;;5078736;27;34160;-76
2021/12/10 07:39:47;;;;;;;2.65;1.20;;;3.50;53.70;;;;;;5078403;27;34183;-77
2021/12/10 07:42:14;;;;;;;1.85;1.20;;;3.50;53.60;;;;;;5043812;27;35881;-77
2021/12/10 07:44:40;;;;;;;2.10;1.33;;;3.50;53.70;;;;;;5044908;27;34216;-77
2021/12/10 07:47:12;;;;;;;1.52;1.10;;;3.60;53.60;;;;;;5077590;27;34292;-77
2021/12/10 07:49:39;;;;;;;3.20;1.38;;;3.50;53.70;;;;;;5011259;28;34273;-77
2021/12/10 07:52:14;;;;;;;1.55;1.10;;;3.50;53.80;;;;;;5027080;28;36585;-77
2021/12/10 07:54:41;;;;;;;1.83;1.15;;;3.50;53.80;;;;;;5044445;27;34050;-77
2021/12/10 07:57:08;;;;;;;2.50;1.20;;;3.50;53.90;;;;;;5043703;28;34200;-77
2021/12/10 07:59:35;;;;;;;2.65;0.93;;;3.50;53.80;;;;;;5077075;27;34514;-77
2021/12/10 08:02:02;;;;;;;2.25;1.30;;;3.50;54.00;;;;;;5044052;27;36580;-76
2021/12/10 08:04:28;;;;;;;1.38;1.13;;;3.60;54.00;;;;;;5047239;27;35049;-76
2021/12/10 08:06:54;;;;;;;2.05;1.30;;;3.60;54.00;;;;;;5052191;28;34199;-77
2021/12/10 08:09:20;;;;;;;2.00;1.33;;;3.60;53.80;;;;;;5044006;27;34367;-77
2021/12/10 08:11:46;;;;;;;1.40;1.30;;;3.60;53.90;;;;;;5043386;28;36238;-76
2021/12/10 08:14:12;;;;;;;3.10;1.13;;;3.70;54.10;;;;;;5044193;28;34497;-76
2021/12/10 08:16:39;;;;;;;1.67;0.88;;;3.70;54.10;;;;;;5026541;28;34319;-76
2021/12/10 08:19:07;;;;;;;1.73;0.90;;;3.70;53.80;;;;;;5060868;27;34231;-76
2021/12/10 08:21:33;;;;;;;1.92;1.25;;;3.70;53.70;;;;;;5043375;28;35889;-76
2021/12/10 08:24:00;;;;;;;1.25;0.85;;;3.80;53.70;;;;;;5042279;27;34193;-76
2021/12/10 08:26:26;;;;;;;1.08;0.93;;;3.70;53.60;;;;;;5043236;27;34222;-77
2021/12/10 08:28:53;;;;;;;5.55;1.48;;;3.80;53.60;;;;;;5061825;27;34296;-76
2021/12/10 08:31:19;;;;;;;1.88;1.15;;;3.80;53.40;;;;;;5061181;28;35167;-76
2021/12/10 08:33:48;;;;;;;4.60;1.25;;;3.80;53.70;;;;;;5043912;27;34246;-76
2021/12/10 08:36:19;;;;;;;1.98;1.23;;;3.80;53.90;;;;;;5043991;28;34226;-77
2021/12/10 08:38:45;;;;;;;1.33;1.20;;;3.80;53.60;;;;;;5028749;28;34227;-76
2021/12/10 08:41:17;;;;;;;2.28;1.25;;;3.80;53.70;;;;;;5061031;27;34361;-76
2021/12/10 08:43:49;;;;;;;2.03;1.20;;;3.80;53.60;;;;;;5044830;28;34183;-77
2021/12/10 08:46:16;;;;;;;1.45;1.20;;;3.80;53.40;;;;;;5028022;28;34185;-76
2021/12/10 08:48:43;;;;;;;1.70;1.30;;;3.80;53.60;;;;;;5045129;27;34062;-77
2021/12/10 08:51:21;;;;;;;2.50;1.60;;;3.80;53.70;;;;;;5027798;28;35665;-77
2021/12/10 08:53:47;;;;;;;1.23;0.95;;;3.80;53.60;;;;;;5045061;27;34320;-77
2021/12/10 08:56:14;;;;;;;1.35;1.25;;;3.80;53.50;;;;;;5061020;28;34176;-76
2021/12/10 08:58:40;;;;;;;2.35;1.55;;;3.80;53.40;;;;;;5044862;27;34099;-77
2021/12/10 09:01:12;;;;;;;1.55;1.42;;;3.90;53.60;;;;;;5043995;28;35780;-77
2021/12/10 09:03:38;;;;;;;1.42;1.33;;;3.80;53.40;;;;;;5027944;28;34131;-76
2021/12/10 09:06:06;;;;;;;1.70;1.20;;;3.80;53.50;;;;;;5044361;28;34166;-76
2021/12/10 09:08:33;;;;;;;3.13;1.60;;;3.90;53.60;;;;;;5045516;27;34216;-76
2021/12/10 09:10:59;;;;;;;2.42;1.45;;;3.90;53.70;;;;;;5044267;27;35938;-76
2021/12/10 09:13:25;;;;;;;1.60;1.50;;;3.90;53.50;;;;;;5028877;28;34218;-76
2021/12/10 09:15:58;;;;;;;3.88;1.48;;;3.90;53.70;;;;;;5044629;28;34361;-76
2021/12/10 09:18:25;;;;;;;2.40;1.77;;;3.90;53.60;;;;;;5042867;28;34502;-77
2021/12/10 09:20:54;;;;;;;1.55;1.38;;;3.90;53.50;;;;;;5044238;28;34315;-77
2021/12/10 09:23:23;;;;;;;1.60;1.50;;;3.90;53.50;;;;;;5041944;27;34263;-76
2021/12/10 09:25:52;;;;;;;1.30;1.20;;;3.90;53.60;;;;;;5042405;27;34178;-77
2021/12/10 09:28:18;;;;;;;1.50;1.40;;;3.90;53.60;;;;;;5042110;27;34499;-77
2021/12/10 09:30:48;;;;;;;1.35;1.25;;;3.90;53.80;;;;;;5043049;28;36605;-76
2021/12/10 09:33:16;;;;;;;1.40;1.30;;;3.90;53.60;;;;;;5025958;28;34390;-76
2021/12/10 09:35:42;;;;;;;1.88;1.75;;;3.90;53.50;;;;;;5046065;28;34213;-76
2021/12/10 09:38:09;;;;;;;1.95;1.75;;;3.90;53.50;;;;;;5045953;28;34311;-76
2021/12/10 09:40:40;;;;;;;2.05;1.65;;;3.90;53.60;;;;;;5045970;27;36182;-77
2021/12/10 09:43:08;;;;;;;3.53;1.60;;;3.90;53.50;;;;;;5046685;27;34257;-76
2021/12/10 09:45:38;;;;;;;2.15;1.67;;;3.90;53.60;;;;;;5014500;28;34786;-77
2021/12/10 09:48:07;;;;;;;1.58;1.48;;;3.90;53.50;;;;;;5064722;27;34132;-77
2021/12/10 09:50:38;;;;;;;2.28;1.42;;;4.00;53.60;;;;;;5028705;28;35897;-77
2021/12/10 09:53:08;;;;;;;2.17;1.52;;;4.00;53.40;;;;;;5012737;28;34150;-77
2021/12/10 09:55:35;;;;;;;1.42;1.33;;;4.00;53.40;;;;;;5063689;27;34111;-77
2021/12/10 09:58:02;;;;;;;1.73;1.60;;;4.00;53.40;;;;;;5064472;27;34373;-76
2021/12/10 10:00:35;;;;;;;1.67;1.55;;;4.00;53.70;;;;;;5028666;28;35763;-76
2021/12/10 10:03:03;;;;;;;2.70;1.63;;;4.00;54.30;;;;;;5046076;27;34277;-77
2021/12/10 10:05:31;;;;;;;2.03;1.73;;;4.10;53.50;;;;;;5045418;28;34129;-77
2021/12/10 10:08:01;;;;;;;1.85;1.70;;;4.10;53.50;;;;;;5046933;28;34043;-77
2021/12/10 10:10:29;;;;;;;1.75;1.52;;;4.10;53.40;;;;;;5028211;28;36991;-77
2021/12/10 10:12:56;;;;;;;2.97;1.65;;;4.10;53.40;;;;;;5027966;28;34494;-77
2021/12/10 10:15:28;;;;;;;1.70;1.50;;;4.20;53.40;;;;;;5028627;28;34368;-77
2021/12/10 10:17:57;;;;;;;1.52;1.40;;;4.20;53.50;;;;;;5063023;28;34082;-77
2021/12/10 10:20:24;;;;;;;1.75;1.63;;;4.20;53.20;;;;;;5028531;28;35912;-77
2021/12/10 10:22:51;;;;;;;1.70;1.60;;;4.20;53.30;;;;;;5029131;28;34025;-76
2021/12/10 10:25:22;;;;;;;2.35;1.58;;;4.30;53.20;;;;;;5045505;27;34158;-76
2021/12/10 10:27:49;;;;;;;2.53;1.65;;;4.30;53.30;;;;;;5030004;28;34392;-77
2021/12/10 10:30:24;;;;;;;1.55;1.45;;;4.20;52.80;;;;;;5013705;28;35802;-77
2021/12/10 10:32:51;;;;;;;1.60;1.50;;;4.30;53.10;;;;;;5014195;28;33802;-77
2021/12/10 10:35:22;;;;;;;1.98;1.52;;;4.30;53.10;;;;;;5063016;28;35130;-76
2021/12/10 10:37:49;;;;;;;1.63;1.45;;;4.30;53.30;;;;;;5039452;27;34295;-76
2021/12/10 10:40:21;;;;;;;2.38;1.50;;;4.30;53.30;;;;;;5039176;28;35816;-77
2021/12/10 10:42:48;;;;;;;1.83;1.73;;;4.30;53.20;;;;;;5085541;27;34366;-76
2021/12/10 10:45:20;;;;;;;1.52;1.40;;;4.30;53.30;;;;;;5066435;27;34409;-76
2021/12/10 10:47:47;;;;;;;2.25;1.70;;;4.40;53.40;;;;;;5050374;28;34298;-77
2021/12/10 10:50:22;;;;;;;2.35;1.60;;;4.40;53.30;;;;;;5049408;27;36080;-77
2021/12/10 10:52:51;;;;;;;1.95;1.65;;;4.40;53.30;;;;;;5049745;27;34234;-76
2021/12/10 10:55:23;;;;;;;1.80;1.67;;;4.40;53.30;;;;;;5050684;27;34181;-76
2021/12/10 10:58:09;;;;;;;2.15;1.75;;;4.40;53.20;;;;;;5049664;28;34477;-76
2021/12/10 11:00:51;;;;;;;1.98;1.70;;;4.40;53.20;;;;;;5068424;28;34375;-76
2021/12/10 11:03:22;;;;;;;2.60;2.17;;;4.50;53.30;;;;;;5067331;27;34205;-76
2021/12/10 11:05:52;;;;;;;1.70;1.60;;;4.40;53.10;;;;;;5064470;27;34249;-76
2021/12/10 11:08:28;;;;;;;3.63;2.28;;;4.50;54.20;;;;;;5047669;28;34280;-77
2021/12/10 11:10:58;;;;;;;1.77;1.67;;;4.50;53.10;;;;;;5064288;28;35187;-76
2021/12/10 11:13:26;;;;;;;2.22;2.03;;;4.50;53.10;;;;;;5063732;28;34251;-76
2021/12/10 11:16:01;;;;;;;1.70;1.58;;;4.50;53.20;;;;;;5064174;27;34245;-77
2021/12/10 11:18:37;;;;;;;3.63;1.50;;;4.50;53.00;;;;;;5033453;28;34261;-77
2021/12/10 11:21:03;;;;;;;1.70;1.48;;;4.50;53.20;;;;;;5021093;28;34275;-76
2021/12/10 11:23:31;;;;;;;1.63;1.48;;;4.50;53.30;;;;;;5022251;28;34232;-76
2021/12/10 11:25:57;;;;;;;2.35;1.70;;;4.60;53.30;;;;;;5021745;28;34305;-76
2021/12/10 11:28:30;;;;;;;2.67;1.55;;;4.50;53.10;;;;;;5020814;28;34582;-77
2021/12/10 11:31:03;;;;;;;1.77;1.67;;;4.50;53.20;;;;;;5003855;28;36018;-76
2021/12/10 11:33:33;;;;;;;2.13;1.77;;;4.60;53.90;;;;;;5016457;28;34232;-77
2021/12/10 11:36:05;;;;;;;1.40;1.30;;;4.50;53.10;;;;;;5087302;27;34191;-76
2021/12/10 11:38:33;;;;;;;1.42;1.33;;;4.50;53.10;;;;;;5087147;27;34196;-76
2021/12/10 11:41:18;;;;;;;2.83;1.08;;;4.50;53.10;;;;;;5000429;28;34194;-76
2021/12/10 11:43:54;;;;;;;1.25;1.23;;;4.50;53.30;;;;;;5088828;27;34144;-76
2021/12/10 11:46:43;;;;;;;1.60;1.20;;;4.50;53.30;;;;;;5088244;27;34007;-76
2021/12/10 11:49:16;;;;;;;2.42;1.48;;;4.50;53.00;;;;;;5000542;28;34417;-76
2021/12/10 11:51:59;;;;;;;1.40;1.30;;;4.50;53.40;;;;;;5103870;27;35999;-76
2021/12/10 11:54:31;;;;;;;1.23;1.10;;;4.60;53.50;;;;;;5031199;28;34180;-76
2021/12/10 11:57:10;;;;;;;1.50;1.40;;;4.60;53.40;;;;;;5037217;28;34234;-76
2021/12/10 11:59:41;;;;;;;1.25;1.15;;;4.60;53.10;;;;;;5022432;28;34380;-77
2021/12/10 12:02:12;;;;;;;2.05;1.30;;;4.60;52.90;;;;;;5003444;28;36261;-77
2021/12/10 12:04:52;;;;;;;1.08;0.98;;;4.60;53.10;;;;;;5019516;28;34179;-77
2021/12/10 12:07:29;;;;;;;2.30;1.30;;;4.60;53.40;;;;;;5037979;28;34257;-77
2021/12/10 12:10:23;;;;;;;1.05;0.98;;;4.60;53.30;;;;;;5021381;28;33908;-77
2021/12/10 12:12:56;;;;;;;2.17;1.70;;;4.60;53.20;;;;;;5005395;28;36880;-77
2021/12/10 12:15:28;;;;;;;2.03;1.30;;;4.70;53.50;;;;;;5019806;28;34157;-77
2021/12/10 12:17:59;;;;;;;1.60;1.50;;;4.70;53.50;;;;;;5003596;28;34286;-77
2021/12/10 12:20:48;;;;;;;1.50;1.40;;;4.80;53.20;;;;;;5020391;28;33810;-77
2021/12/10 12:26:26;;;;;;;1.60;1.50;;;4.80;53.00;;;;;;5007447;28;34088;-76
2021/12/10 12:28:57;;;;;;;1.75;1.65;;;4.80;53.00;;;;;;5020772;28;34168;-77
2021/12/10 12:31:27;;;;;;;4.53;1.70;;;4.80;53.30;;;;;;5020264;28;34365;-77
2021/12/10 12:34:08;;;;;;;1.42;1.33;;;4.90;53.20;;;;;;5020907;28;36685;-77
2021/12/10 12:36:43;;;;;;;1.75;1.65;;;4.90;52.80;;;;;;5022475;28;34304;-77
2021/12/10 12:39:14;;;;;;;1.67;1.58;;;4.90;53.30;;;;;;5020641;28;34087;-76
2021/12/10 12:41:46;;;;;;;1.95;1.77;;;4.90;53.10;;;;;;5020214;28;34291;-77
2021/12/10 12:44:21;;;;;;;1.88;1.77;;;5.00;52.80;;;;;;5020875;28;34341;-76
2021/12/10 12:47:05;;;;;;;3.17;1.70;;;5.00;52.80;;;;;;5036975;28;34205;-77
2021/12/10 12:49:56;;;;;;;1.77;1.63;;;4.90;52.80;;;;;;5020016;28;34226;-76
2021/12/10 12:52:46;;;;;;;1.40;1.30;;;4.90;52.70;;;;;;5039515;28;34234;-76
2021/12/10 12:55:31;;;;;;;4.55;1.70;;;4.90;52.80;;;;;;5007020;28;35593;-76
2021/12/10 12:58:16;;;;;;;1.33;1.25;;;4.90;53.10;;;;;;5004870;28;34149;-76
2021/12/10 13:00:53;;;;;;;1.52;1.42;;;4.90;52.90;;;;;;5005144;28;34223;-77
2021/12/10 13:03:29;;;;;;;2.42;1.25;;;4.90;53.10;;;;;;5021615;28;34384;-77
2021/12/10 13:06:05;;;;;;;1.60;1.50;;;4.90;53.40;;;;;;5020690;28;35896;-77
2021/12/10 13:08:35;;;;;;;2.80;1.60;;;4.90;53.40;;;;;;5004392;28;34371;-77
2021/12/10 13:11:09;;;;;;;1.88;1.67;;;4.90;53.30;;;;;;5007627;28;34185;-77
2021/12/10 13:13:45;;;;;;;3.03;1.50;;;4.90;53.50;;;;;;5008587;28;34084;-77
2021/12/10 13:16:14;;;;;;;1.73;1.63;;;4.90;53.30;;;;;;5023641;28;35983;-77
2021/12/10 13:18:42;;;;;;;1.80;1.70;;;4.90;53.00;;;;;;5032247;28;34216;-77
2021/12/10 13:21:11;;;;;;;1.77;1.60;;;4.90;53.20;;;;;;5046304;27;34212;-77
2021/12/10 13:23:38;;;;;;;1.95;1.70;;;4.90;53.20;;;;;;5046725;27;34240;-77